Barbers Point N A S, Hawaii
Current Conditions -  °F | °C
As of 4:53 AM on Thursday 23 Oct 2014 (Local Time) from PHJR Reporting Station
Broken Clouds Broken Clouds  
Wind Chill: 74°   Ceiling: 4200
Heat Index: 74°   Visibility: 10mi
Dew Point: 71°   Wind: 0mph
Humidity: 91%   Direction: NA
Pressure: 30"   Gusts: NA
Location:  21.319°N, 158.0749°W
Report Text: PHJR 231453Z AUTO 00000KT 10SM BKN042 BKN048 23/22 A3000 RMK AO2 SLP163 T02330217 55002 TSNO
Loading
Personal Weather Stations






























Interactive Weather Map
Tropical Storm Tracking
New forecast layout! Learn more

10-Day Weather Forecast

Advertisements
Track Severe Weather on mobile